sensor_id;sensor_type;location;lat;lon;timestamp;P1;durP1;ratioP1;P2;durP2;ratioP2
45338;SDS011;31071;51.478;5.710;2022-07-29T00:01:36;4.63;;;2.05;;
45338;SDS011;31071;51.478;5.710;2022-07-29T00:04:01;12.68;;;3.05;;
45338;SDS011;31071;51.478;5.710;2022-07-29T00:06:27;5.47;;;2.78;;
45338;SDS011;31071;51.478;5.710;2022-07-29T00:08:53;9.00;;;3.00;;
45338;SDS011;31071;51.478;5.710;2022-07-29T00:11:18;7.78;;;3.50;;
45338;SDS011;31071;51.478;5.710;2022-07-29T00:13:44;8.77;;;3.08;;
45338;SDS011;31071;51.478;5.710;2022-07-29T00:16:09;5.05;;;3.08;;
45338;SDS011;31071;51.478;5.710;2022-07-29T00:18:34;7.75;;;3.75;;
45338;SDS011;31071;51.478;5.710;2022-07-29T00:21:00;13.00;;;4.18;;
45338;SDS011;31071;51.478;5.710;2022-07-29T00:23:26;10.60;;;3.72;;
45338;SDS011;31071;51.478;5.710;2022-07-29T00:25:51;6.30;;;3.65;;
45338;SDS011;31071;51.478;5.710;2022-07-29T00:28:17;8.40;;;3.70;;
45338;SDS011;31071;51.478;5.710;2022-07-29T00:30:42;7.90;;;4.05;;
45338;SDS011;31071;51.478;5.710;2022-07-29T00:33:08;8.35;;;3.80;;
45338;SDS011;31071;51.478;5.710;2022-07-29T00:35:34;5.93;;;3.45;;
45338;SDS011;31071;51.478;5.710;2022-07-29T00:38:09;7.25;;;3.47;;
45338;SDS011;31071;51.478;5.710;2022-07-29T00:40:36;4.68;;;3.72;;
45338;SDS011;31071;51.478;5.710;2022-07-29T00:43:02;8.05;;;4.28;;
45338;SDS011;31071;51.478;5.710;2022-07-29T00:45:27;7.20;;;3.50;;
45338;SDS011;31071;51.478;5.710;2022-07-29T00:47:55;8.27;;;3.83;;
45338;SDS011;31071;51.478;5.710;2022-07-29T00:50:20;8.75;;;4.47;;
45338;SDS011;31071;51.478;5.710;2022-07-29T00:52:46;5.78;;;4.10;;
45338;SDS011;31071;51.478;5.710;2022-07-29T00:55:13;11.45;;;3.70;;
45338;SDS011;31071;51.478;5.710;2022-07-29T00:57:47;7.90;;;4.07;;
45338;SDS011;31071;51.478;5.710;2022-07-29T01:00:15;6.97;;;4.25;;
45338;SDS011;31071;51.478;5.710;2022-07-29T01:02:43;7.70;;;4.35;;
45338;SDS011;31071;51.478;5.710;2022-07-29T01:05:09;7.45;;;4.70;;
45338;SDS011;31071;51.478;5.710;2022-07-29T01:07:37;10.70;;;4.80;;
45338;SDS011;31071;51.478;5.710;2022-07-29T01:10:05;8.63;;;4.93;;
45338;SDS011;31071;51.478;5.710;2022-07-29T01:12:32;9.75;;;5.07;;
45338;SDS011;31071;51.478;5.710;2022-07-29T01:14:59;9.85;;;5.72;;
45338;SDS011;31071;51.478;5.710;2022-07-29T01:17:37;9.13;;;5.75;;
45338;SDS011;31071;51.478;5.710;2022-07-29T01:20:16;11.07;;;6.63;;
45338;SDS011;31071;51.478;5.710;2022-07-29T01:31:03;13.18;;;7.93;;
45338;SDS011;31071;51.478;5.710;2022-07-29T01:33:31;15.90;;;7.65;;
45338;SDS011;31071;51.478;5.710;2022-07-29T01:36:22;13.05;;;7.90;;
45338;SDS011;31071;51.478;5.710;2022-07-29T01:38:58;14.93;;;7.82;;
45338;SDS011;31071;51.478;5.710;2022-07-29T01:42:19;11.15;;;7.93;;
45338;SDS011;31071;51.478;5.710;2022-07-29T01:44:53;8.57;;;6.68;;
45338;SDS011;31071;51.478;5.710;2022-07-29T01:47:39;10.43;;;6.78;;
45338;SDS011;31071;51.478;5.710;2022-07-29T01:50:10;12.85;;;6.95;;
45338;SDS011;31071;51.478;5.710;2022-07-29T01:52:41;8.35;;;6.82;;
45338;SDS011;31071;51.478;5.710;2022-07-29T01:55:27;12.70;;;6.28;;
45338;SDS011;31071;51.478;5.710;2022-07-29T01:58:03;10.65;;;6.57;;
45338;SDS011;31071;51.478;5.710;2022-07-29T02:00:31;10.30;;;7.63;;
45338;SDS011;31071;51.478;5.710;2022-07-29T02:03:04;9.77;;;7.40;;
45338;SDS011;31071;51.478;5.710;2022-07-29T02:05:34;10.95;;;7.75;;
45338;SDS011;31071;51.478;5.710;2022-07-29T02:08:02;10.13;;;7.60;;
45338;SDS011;31071;51.478;5.710;2022-07-29T02:10:31;14.52;;;7.65;;
45338;SDS011;31071;51.478;5.710;2022-07-29T02:12:58;9.32;;;7.47;;
45338;SDS011;31071;51.478;5.710;2022-07-29T02:15:26;14.50;;;7.60;;
45338;SDS011;31071;51.478;5.710;2022-07-29T02:17:55;11.73;;;7.80;;
45338;SDS011;31071;51.478;5.710;2022-07-29T02:20:25;11.70;;;7.45;;
45338;SDS011;31071;51.478;5.710;2022-07-29T02:22:51;14.32;;;7.15;;
45338;SDS011;31071;51.478;5.710;2022-07-29T02:25:18;9.75;;;7.35;;
45338;SDS011;31071;51.478;5.710;2022-07-29T02:27:45;10.20;;;7.25;;
45338;SDS011;31071;51.478;5.710;2022-07-29T02:30:13;9.77;;;6.43;;
45338;SDS011;31071;51.478;5.710;2022-07-29T02:32:39;13.57;;;6.35;;
45338;SDS011;31071;51.478;5.710;2022-07-29T02:35:06;11.32;;;6.18;;
45338;SDS011;31071;51.478;5.710;2022-07-29T02:37:35;9.90;;;6.18;;
45338;SDS011;31071;51.478;5.710;2022-07-29T02:40:02;8.43;;;6.68;;
45338;SDS011;31071;51.478;5.710;2022-07-29T02:42:29;8.93;;;6.90;;
45338;SDS011;31071;51.478;5.710;2022-07-29T02:44:56;10.25;;;6.18;;
45338;SDS011;31071;51.478;5.710;2022-07-29T02:47:28;10.15;;;6.63;;
45338;SDS011;31071;51.478;5.710;2022-07-29T02:50:12;13.15;;;7.03;;
45338;SDS011;31071;51.478;5.710;2022-07-29T02:57:47;11.25;;;6.35;;
45338;SDS011;31071;51.478;5.710;2022-07-29T03:00:19;10.20;;;6.65;;
45338;SDS011;31071;51.478;5.710;2022-07-29T03:02:49;8.23;;;6.20;;
45338;SDS011;31071;51.478;5.710;2022-07-29T03:05:18;11.77;;;6.07;;
45338;SDS011;31071;51.478;5.710;2022-07-29T03:07:45;9.38;;;6.10;;
45338;SDS011;31071;51.478;5.710;2022-07-29T03:10:14;12.18;;;6.72;;
45338;SDS011;31071;51.478;5.710;2022-07-29T03:12:40;9.32;;;6.25;;
45338;SDS011;31071;51.478;5.710;2022-07-29T03:15:07;9.80;;;6.18;;
45338;SDS011;31071;51.478;5.710;2022-07-29T03:17:35;10.75;;;6.47;;
45338;SDS011;31071;51.478;5.710;2022-07-29T03:20:02;8.70;;;6.40;;
45338;SDS011;31071;51.478;5.710;2022-07-29T03:22:27;8.80;;;6.05;;
45338;SDS011;31071;51.478;5.710;2022-07-29T03:24:53;8.13;;;6.85;;
45338;SDS011;31071;51.478;5.710;2022-07-29T03:27:19;8.38;;;6.28;;
45338;SDS011;31071;51.478;5.710;2022-07-29T03:29:45;10.43;;;6.13;;
45338;SDS011;31071;51.478;5.710;2022-07-29T03:32:10;6.13;;;5.38;;
45338;SDS011;31071;51.478;5.710;2022-07-29T03:34:36;7.65;;;5.88;;
45338;SDS011;31071;51.478;5.710;2022-07-29T03:37:04;10.57;;;6.20;;
45338;SDS011;31071;51.478;5.710;2022-07-29T03:39:31;8.98;;;7.13;;
45338;SDS011;31071;51.478;5.710;2022-07-29T03:42:01;12.30;;;6.90;;
45338;SDS011;31071;51.478;5.710;2022-07-29T03:44:28;9.85;;;7.97;;
45338;SDS011;31071;51.478;5.710;2022-07-29T03:46:56;13.85;;;8.15;;
45338;SDS011;31071;51.478;5.710;2022-07-29T03:49:24;9.77;;;8.10;;
45338;SDS011;31071;51.478;5.710;2022-07-29T03:51:52;10.93;;;7.95;;
45338;SDS011;31071;51.478;5.710;2022-07-29T03:54:17;15.90;;;8.00;;
45338;SDS011;31071;51.478;5.710;2022-07-29T03:56:45;12.48;;;8.15;;
45338;SDS011;31071;51.478;5.710;2022-07-29T03:59:13;11.70;;;7.93;;
45338;SDS011;31071;51.478;5.710;2022-07-29T04:01:42;11.93;;;8.00;;
45338;SDS011;31071;51.478;5.710;2022-07-29T04:04:08;16.40;;;9.13;;
45338;SDS011;31071;51.478;5.710;2022-07-29T04:06:38;12.00;;;9.15;;
45338;SDS011;31071;51.478;5.710;2022-07-29T04:09:04;11.27;;;8.38;;
45338;SDS011;31071;51.478;5.710;2022-07-29T04:11:30;13.18;;;8.68;;
45338;SDS011;31071;51.478;5.710;2022-07-29T04:13:55;16.15;;;7.70;;
45338;SDS011;31071;51.478;5.710;2022-07-29T04:16:21;10.55;;;8.70;;
45338;SDS011;31071;51.478;5.710;2022-07-29T04:18:46;15.68;;;8.73;;
45338;SDS011;31071;51.478;5.710;2022-07-29T04:21:12;10.88;;;8.95;;
45338;SDS011;31071;51.478;5.710;2022-07-29T04:23:37;14.45;;;9.48;;
45338;SDS011;31071;51.478;5.710;2022-07-29T04:26:03;15.18;;;11.02;;
45338;SDS011;31071;51.478;5.710;2022-07-29T04:28:28;12.57;;;10.68;;
45338;SDS011;31071;51.478;5.710;2022-07-29T04:30:54;18.65;;;10.05;;
45338;SDS011;31071;51.478;5.710;2022-07-29T04:33:19;12.15;;;9.57;;
45338;SDS011;31071;51.478;5.710;2022-07-29T04:35:45;14.48;;;9.95;;
45338;SDS011;31071;51.478;5.710;2022-07-29T04:38:10;14.90;;;10.43;;
45338;SDS011;31071;51.478;5.710;2022-07-29T04:40:36;13.98;;;10.77;;
45338;SDS011;31071;51.478;5.710;2022-07-29T04:43:02;16.30;;;11.00;;
45338;SDS011;31071;51.478;5.710;2022-07-29T04:45:27;17.65;;;11.10;;
45338;SDS011;31071;51.478;5.710;2022-07-29T04:47:54;14.63;;;10.68;;
45338;SDS011;31071;51.478;5.710;2022-07-29T04:50:20;13.77;;;10.07;;
45338;SDS011;31071;51.478;5.710;2022-07-29T04:52:46;16.60;;;10.35;;
45338;SDS011;31071;51.478;5.710;2022-07-29T04:57:43;14.15;;;10.05;;
45338;SDS011;31071;51.478;5.710;2022-07-29T05:00:08;15.70;;;11.02;;
45338;SDS011;31071;51.478;5.710;2022-07-29T05:02:34;16.17;;;11.55;;
45338;SDS011;31071;51.478;5.710;2022-07-29T05:05:00;14.10;;;11.20;;
45338;SDS011;31071;51.478;5.710;2022-07-29T05:07:26;16.90;;;11.68;;
45338;SDS011;31071;51.478;5.710;2022-07-29T05:09:52;12.52;;;10.63;;
45338;SDS011;31071;51.478;5.710;2022-07-29T05:12:18;15.70;;;10.45;;
45338;SDS011;31071;51.478;5.710;2022-07-29T05:14:43;22.35;;;11.90;;
45338;SDS011;31071;51.478;5.710;2022-07-29T05:17:09;15.07;;;12.05;;
45338;SDS011;31071;51.478;5.710;2022-07-29T05:19:34;19.77;;;11.32;;
45338;SDS011;31071;51.478;5.710;2022-07-29T05:22:00;17.48;;;12.20;;
45338;SDS011;31071;51.478;5.710;2022-07-29T05:24:25;16.25;;;11.25;;
45338;SDS011;31071;51.478;5.710;2022-07-29T05:26:51;13.88;;;10.45;;
45338;SDS011;31071;51.478;5.710;2022-07-29T05:29:16;15.30;;;10.60;;
45338;SDS011;31071;51.478;5.710;2022-07-29T05:31:42;15.38;;;10.38;;
45338;SDS011;31071;51.478;5.710;2022-07-29T05:34:07;16.30;;;10.13;;
45338;SDS011;31071;51.478;5.710;2022-07-29T05:36:33;15.35;;;10.00;;
45338;SDS011;31071;51.478;5.710;2022-07-29T05:38:58;14.50;;;9.95;;
45338;SDS011;31071;51.478;5.710;2022-07-29T05:41:24;13.80;;;10.30;;
45338;SDS011;31071;51.478;5.710;2022-07-29T05:43:49;14.23;;;10.75;;
45338;SDS011;31071;51.478;5.710;2022-07-29T05:46:15;12.85;;;10.13;;
45338;SDS011;31071;51.478;5.710;2022-07-29T05:48:40;16.75;;;11.23;;
45338;SDS011;31071;51.478;5.710;2022-07-29T05:51:06;13.48;;;11.18;;
45338;SDS011;31071;51.478;5.710;2022-07-29T05:53:31;13.27;;;10.55;;
45338;SDS011;31071;51.478;5.710;2022-07-29T05:55:57;14.95;;;10.75;;
45338;SDS011;31071;51.478;5.710;2022-07-29T05:58:23;15.60;;;11.32;;
45338;SDS011;31071;51.478;5.710;2022-07-29T06:00:48;13.20;;;9.40;;
45338;SDS011;31071;51.478;5.710;2022-07-29T06:03:14;15.68;;;10.30;;
45338;SDS011;31071;51.478;5.710;2022-07-29T06:05:39;13.82;;;9.63;;
45338;SDS011;31071;51.478;5.710;2022-07-29T06:08:05;12.93;;;10.02;;
45338;SDS011;31071;51.478;5.710;2022-07-29T06:10:32;11.05;;;9.40;;
45338;SDS011;31071;51.478;5.710;2022-07-29T06:12:59;14.80;;;9.85;;
45338;SDS011;31071;51.478;5.710;2022-07-29T06:15:24;16.30;;;9.05;;
45338;SDS011;31071;51.478;5.710;2022-07-29T06:17:51;14.60;;;10.02;;
45338;SDS011;31071;51.478;5.710;2022-07-29T06:20:17;15.70;;;10.00;;
45338;SDS011;31071;51.478;5.710;2022-07-29T06:22:43;14.68;;;11.10;;
45338;SDS011;31071;51.478;5.710;2022-07-29T06:25:08;16.15;;;11.18;;
45338;SDS011;31071;51.478;5.710;2022-07-29T06:27:34;17.98;;;11.75;;
45338;SDS011;31071;51.478;5.710;2022-07-29T06:30:00;15.32;;;11.27;;
45338;SDS011;31071;51.478;5.710;2022-07-29T06:32:26;15.57;;;12.10;;
45338;SDS011;31071;51.478;5.710;2022-07-29T06:34:52;15.68;;;12.15;;
45338;SDS011;31071;51.478;5.710;2022-07-29T06:37:17;15.52;;;12.10;;
45338;SDS011;31071;51.478;5.710;2022-07-29T06:39:43;16.73;;;12.70;;
45338;SDS011;31071;51.478;5.710;2022-07-29T06:42:08;16.52;;;11.35;;
45338;SDS011;31071;51.478;5.710;2022-07-29T06:44:34;16.83;;;12.98;;
45338;SDS011;31071;51.478;5.710;2022-07-29T06:47:23;14.63;;;11.52;;
45338;SDS011;31071;51.478;5.710;2022-07-29T06:49:48;18.52;;;12.27;;
45338;SDS011;31071;51.478;5.710;2022-07-29T06:52:14;14.55;;;11.35;;
45338;SDS011;31071;51.478;5.710;2022-07-29T06:54:39;13.90;;;10.77;;
45338;SDS011;31071;51.478;5.710;2022-07-29T06:57:12;13.68;;;11.18;;
45338;SDS011;31071;51.478;5.710;2022-07-29T06:59:38;16.38;;;10.80;;
45338;SDS011;31071;51.478;5.710;2022-07-29T07:02:03;15.32;;;11.40;;
45338;SDS011;31071;51.478;5.710;2022-07-29T07:04:29;13.38;;;10.57;;
45338;SDS011;31071;51.478;5.710;2022-07-29T07:06:54;13.18;;;11.23;;
45338;SDS011;31071;51.478;5.710;2022-07-29T07:09:20;15.38;;;11.90;;
45338;SDS011;31071;51.478;5.710;2022-07-29T07:11:46;15.25;;;10.02;;
45338;SDS011;31071;51.478;5.710;2022-07-29T07:14:11;11.35;;;9.90;;
45338;SDS011;31071;51.478;5.710;2022-07-29T07:16:43;15.25;;;9.88;;
45338;SDS011;31071;51.478;5.710;2022-07-29T07:19:09;14.93;;;10.30;;
45338;SDS011;31071;51.478;5.710;2022-07-29T07:21:34;13.07;;;10.15;;
45338;SDS011;31071;51.478;5.710;2022-07-29T07:24:00;13.15;;;9.93;;
45338;SDS011;31071;51.478;5.710;2022-07-29T07:26:26;11.38;;;9.48;;
45338;SDS011;31071;51.478;5.710;2022-07-29T07:28:52;13.18;;;9.40;;
45338;SDS011;31071;51.478;5.710;2022-07-29T07:31:18;10.60;;;9.48;;
45338;SDS011;31071;51.478;5.710;2022-07-29T07:33:43;13.38;;;9.73;;
45338;SDS011;31071;51.478;5.710;2022-07-29T07:36:09;12.73;;;9.38;;
45338;SDS011;31071;51.478;5.710;2022-07-29T07:38:35;13.75;;;9.27;;
45338;SDS011;31071;51.478;5.710;2022-07-29T07:41:00;10.57;;;8.70;;
45338;SDS011;31071;51.478;5.710;2022-07-29T07:43:26;11.45;;;9.60;;
45338;SDS011;31071;51.478;5.710;2022-07-29T07:45:52;12.25;;;9.65;;
45338;SDS011;31071;51.478;5.710;2022-07-29T07:48:17;14.98;;;10.57;;
45338;SDS011;31071;51.478;5.710;2022-07-29T07:50:43;14.65;;;10.88;;
45338;SDS011;31071;51.478;5.710;2022-07-29T07:53:09;14.48;;;10.60;;
45338;SDS011;31071;51.478;5.710;2022-07-29T07:55:39;16.52;;;10.52;;
45338;SDS011;31071;51.478;5.710;2022-07-29T07:58:08;13.25;;;9.88;;
45338;SDS011;31071;51.478;5.710;2022-07-29T08:00:34;14.77;;;10.70;;
45338;SDS011;31071;51.478;5.710;2022-07-29T08:03:00;15.65;;;11.38;;
45338;SDS011;31071;51.478;5.710;2022-07-29T08:05:26;12.32;;;11.00;;
45338;SDS011;31071;51.478;5.710;2022-07-29T08:07:51;15.07;;;10.45;;
45338;SDS011;31071;51.478;5.710;2022-07-29T08:10:17;13.00;;;10.45;;
45338;SDS011;31071;51.478;5.710;2022-07-29T08:13:07;10.73;;;9.73;;
45338;SDS011;31071;51.478;5.710;2022-07-29T08:15:33;15.20;;;10.57;;
45338;SDS011;31071;51.478;5.710;2022-07-29T08:18:00;11.27;;;10.02;;
45338;SDS011;31071;51.478;5.710;2022-07-29T08:20:26;10.80;;;9.75;;
45338;SDS011;31071;51.478;5.710;2022-07-29T08:22:52;14.20;;;10.48;;
45338;SDS011;31071;51.478;5.710;2022-07-29T08:25:18;12.90;;;9.48;;
45338;SDS011;31071;51.478;5.710;2022-07-29T08:27:45;10.88;;;8.98;;
45338;SDS011;31071;51.478;5.710;2022-07-29T08:30:11;11.63;;;8.40;;
45338;SDS011;31071;51.478;5.710;2022-07-29T08:32:37;10.65;;;9.25;;
45338;SDS011;31071;51.478;5.710;2022-07-29T08:35:03;10.60;;;9.07;;
45338;SDS011;31071;51.478;5.710;2022-07-29T08:37:28;13.82;;;9.95;;
45338;SDS011;31071;51.478;5.710;2022-07-29T08:39:54;12.38;;;8.50;;
45338;SDS011;31071;51.478;5.710;2022-07-29T08:42:20;11.55;;;8.15;;
45338;SDS011;31071;51.478;5.710;2022-07-29T08:44:46;10.77;;;8.07;;
45338;SDS011;31071;51.478;5.710;2022-07-29T08:47:17;9.18;;;8.18;;
45338;SDS011;31071;51.478;5.710;2022-07-29T08:49:42;7.88;;;6.90;;
45338;SDS011;31071;51.478;5.710;2022-07-29T08:52:10;10.35;;;7.35;;
45338;SDS011;31071;51.478;5.710;2022-07-29T08:54:37;12.93;;;7.80;;
45338;SDS011;31071;51.478;5.710;2022-07-29T08:57:07;11.70;;;7.22;;
45338;SDS011;31071;51.478;5.710;2022-07-29T08:59:35;8.90;;;7.50;;
45338;SDS011;31071;51.478;5.710;2022-07-29T09:02:04;8.43;;;6.97;;
45338;SDS011;31071;51.478;5.710;2022-07-29T09:04:30;13.38;;;7.50;;
45338;SDS011;31071;51.478;5.710;2022-07-29T09:07:00;8.43;;;7.63;;
45338;SDS011;31071;51.478;5.710;2022-07-29T09:09:28;10.02;;;6.85;;
45338;SDS011;31071;51.478;5.710;2022-07-29T09:11:54;11.82;;;8.02;;
45338;SDS011;31071;51.478;5.710;2022-07-29T09:14:20;9.40;;;7.88;;
45338;SDS011;31071;51.478;5.710;2022-07-29T09:16:53;9.27;;;8.32;;
45338;SDS011;31071;51.478;5.710;2022-07-29T09:19:25;12.32;;;8.57;;
45338;SDS011;31071;51.478;5.710;2022-07-29T09:21:51;9.05;;;8.05;;
45338;SDS011;31071;51.478;5.710;2022-07-29T09:24:23;10.13;;;9.07;;
45338;SDS011;31071;51.478;5.710;2022-07-29T09:26:50;14.82;;;9.73;;
45338;SDS011;31071;51.478;5.710;2022-07-29T09:29:16;9.82;;;8.43;;
45338;SDS011;31071;51.478;5.710;2022-07-29T09:31:44;12.75;;;9.07;;
45338;SDS011;31071;51.478;5.710;2022-07-29T09:34:12;10.65;;;9.07;;
45338;SDS011;31071;51.478;5.710;2022-07-29T09:36:44;10.32;;;8.57;;
45338;SDS011;31071;51.478;5.710;2022-07-29T09:39:11;9.15;;;8.25;;
45338;SDS011;31071;51.478;5.710;2022-07-29T09:41:44;9.57;;;7.82;;
45338;SDS011;31071;51.478;5.710;2022-07-29T09:44:11;7.40;;;6.68;;
45338;SDS011;31071;51.478;5.710;2022-07-29T09:46:37;9.15;;;7.35;;
45338;SDS011;31071;51.478;5.710;2022-07-29T09:49:06;13.45;;;7.90;;
45338;SDS011;31071;51.478;5.710;2022-07-29T09:54:02;10.63;;;9.05;;
45338;SDS011;31071;51.478;5.710;2022-07-29T09:56:48;9.65;;;6.45;;
45338;SDS011;31071;51.478;5.710;2022-07-29T09:59:14;8.75;;;7.93;;
45338;SDS011;31071;51.478;5.710;2022-07-29T10:01:40;9.27;;;7.93;;
45338;SDS011;31071;51.478;5.710;2022-07-29T10:04:06;9.10;;;7.22;;
45338;SDS011;31071;51.478;5.710;2022-07-29T10:06:31;9.60;;;7.07;;
45338;SDS011;31071;51.478;5.710;2022-07-29T10:09:06;10.13;;;6.22;;
45338;SDS011;31071;51.478;5.710;2022-07-29T10:11:36;9.48;;;6.97;;
45338;SDS011;31071;51.478;5.710;2022-07-29T10:14:02;7.55;;;6.72;;
45338;SDS011;31071;51.478;5.710;2022-07-29T10:16:28;8.00;;;6.32;;
45338;SDS011;31071;51.478;5.710;2022-07-29T10:18:57;8.70;;;5.63;;
45338;SDS011;31071;51.478;5.710;2022-07-29T10:21:24;6.32;;;5.60;;
45338;SDS011;31071;51.478;5.710;2022-07-29T10:23:50;8.30;;;6.30;;
45338;SDS011;31071;51.478;5.710;2022-07-29T10:26:17;6.63;;;5.80;;
45338;SDS011;31071;51.478;5.710;2022-07-29T10:28:44;11.02;;;6.95;;
45338;SDS011;31071;51.478;5.710;2022-07-29T10:31:12;6.70;;;5.68;;
45338;SDS011;31071;51.478;5.710;2022-07-29T10:42:35;7.25;;;6.55;;
45338;SDS011;31071;51.478;5.710;2022-07-29T10:45:06;9.88;;;8.07;;
45338;SDS011;31071;51.478;5.710;2022-07-29T10:47:32;13.10;;;8.48;;
45338;SDS011;31071;51.478;5.710;2022-07-29T10:50:03;9.35;;;7.10;;
45338;SDS011;31071;51.478;5.710;2022-07-29T10:58:10;9.60;;;7.00;;
45338;SDS011;31071;51.478;5.710;2022-07-29T11:00:44;6.43;;;5.57;;
45338;SDS011;31071;51.478;5.710;2022-07-29T11:06:05;6.80;;;6.00;;
45338;SDS011;31071;51.478;5.710;2022-07-29T11:08:30;6.70;;;5.80;;
45338;SDS011;31071;51.478;5.710;2022-07-29T11:16:11;7.28;;;5.68;;
45338;SDS011;31071;51.478;5.710;2022-07-29T11:19:05;9.15;;;5.70;;
45338;SDS011;31071;51.478;5.710;2022-07-29T11:21:38;6.93;;;5.30;;
45338;SDS011;31071;51.478;5.710;2022-07-29T11:26:42;5.90;;;4.38;;
45338;SDS011;31071;51.478;5.710;2022-07-29T11:31:50;5.32;;;4.22;;
45338;SDS011;31071;51.478;5.710;2022-07-29T11:44:53;5.28;;;3.38;;
45338;SDS011;31071;51.478;5.710;2022-07-29T11:47:23;5.35;;;3.72;;
45338;SDS011;31071;51.478;5.710;2022-07-29T11:49:50;5.93;;;3.92;;
45338;SDS011;31071;51.478;5.710;2022-07-29T11:52:17;7.32;;;4.00;;
45338;SDS011;31071;51.478;5.710;2022-07-29T11:54:43;4.57;;;3.50;;
45338;SDS011;31071;51.478;5.710;2022-07-29T11:57:21;4.82;;;3.33;;
45338;SDS011;31071;51.478;5.710;2022-07-29T11:59:47;3.95;;;3.10;;
45338;SDS011;31071;51.478;5.710;2022-07-29T12:02:13;4.43;;;2.78;;
45338;SDS011;31071;51.478;5.710;2022-07-29T12:07:18;5.93;;;3.85;;
45338;SDS011;31071;51.478;5.710;2022-07-29T12:09:50;6.32;;;3.85;;
45338;SDS011;31071;51.478;5.710;2022-07-29T12:12:17;3.55;;;2.78;;
45338;SDS011;31071;51.478;5.710;2022-07-29T12:14:43;4.50;;;4.10;;
45338;SDS011;31071;51.478;5.710;2022-07-29T12:17:28;5.93;;;3.60;;
45338;SDS011;31071;51.478;5.710;2022-07-29T12:19:58;3.70;;;3.28;;
45338;SDS011;31071;51.478;5.710;2022-07-29T12:22:26;4.00;;;2.63;;
45338;SDS011;31071;51.478;5.710;2022-07-29T12:24:53;6.00;;;3.08;;
45338;SDS011;31071;51.478;5.710;2022-07-29T12:27:20;4.30;;;3.40;;
45338;SDS011;31071;51.478;5.710;2022-07-29T12:29:59;5.72;;;3.65;;
45338;SDS011;31071;51.478;5.710;2022-07-29T12:32:33;4.00;;;3.08;;
45338;SDS011;31071;51.478;5.710;2022-07-29T12:35:07;5.13;;;3.10;;
45338;SDS011;31071;51.478;5.710;2022-07-29T12:37:38;3.92;;;3.00;;
45338;SDS011;31071;51.478;5.710;2022-07-29T12:40:06;4.07;;;2.63;;
45338;SDS011;31071;51.478;5.710;2022-07-29T12:42:33;3.97;;;2.45;;
45338;SDS011;31071;51.478;5.710;2022-07-29T12:44:59;5.25;;;3.40;;
45338;SDS011;31071;51.478;5.710;2022-07-29T12:47:50;5.53;;;3.35;;
45338;SDS011;31071;51.478;5.710;2022-07-29T12:50:17;7.32;;;4.35;;
45338;SDS011;31071;51.478;5.710;2022-07-29T12:52:43;7.35;;;4.80;;
45338;SDS011;31071;51.478;5.710;2022-07-29T12:55:10;6.03;;;4.28;;
45338;SDS011;31071;51.478;5.710;2022-07-29T12:57:51;8.70;;;4.53;;
45338;SDS011;31071;51.478;5.710;2022-07-29T13:00:21;7.60;;;5.00;;
45338;SDS011;31071;51.478;5.710;2022-07-29T13:02:59;7.20;;;5.43;;
45338;SDS011;31071;51.478;5.710;2022-07-29T13:05:44;6.65;;;5.45;;
45338;SDS011;31071;51.478;5.710;2022-07-29T13:08:11;6.25;;;4.88;;
45338;SDS011;31071;51.478;5.710;2022-07-29T13:10:41;5.93;;;5.10;;
45338;SDS011;31071;51.478;5.710;2022-07-29T13:13:14;7.78;;;5.15;;
45338;SDS011;31071;51.478;5.710;2022-07-29T13:15:42;6.53;;;3.38;;
45338;SDS011;31071;51.478;5.710;2022-07-29T13:20:53;5.93;;;4.72;;
45338;SDS011;31071;51.478;5.710;2022-07-29T13:23:18;4.70;;;4.30;;
45338;SDS011;31071;51.478;5.710;2022-07-29T13:25:44;6.47;;;3.80;;
45338;SDS011;31071;51.478;5.710;2022-07-29T13:28:09;5.82;;;3.00;;
45338;SDS011;31071;51.478;5.710;2022-07-29T13:30:36;5.35;;;4.25;;
45338;SDS011;31071;51.478;5.710;2022-07-29T13:33:02;4.03;;;3.63;;
45338;SDS011;31071;51.478;5.710;2022-07-29T13:35:28;6.00;;;3.10;;
45338;SDS011;31071;51.478;5.710;2022-07-29T13:37:55;3.75;;;3.13;;
45338;SDS011;31071;51.478;5.710;2022-07-29T13:40:21;7.88;;;3.45;;
45338;SDS011;31071;51.478;5.710;2022-07-29T13:42:46;3.78;;;3.38;;
45338;SDS011;31071;51.478;5.710;2022-07-29T13:45:12;4.10;;;3.30;;
45338;SDS011;31071;51.478;5.710;2022-07-29T13:47:44;4.57;;;3.20;;
45338;SDS011;31071;51.478;5.710;2022-07-29T13:50:09;5.13;;;3.20;;
45338;SDS011;31071;51.478;5.710;2022-07-29T13:52:35;4.50;;;3.58;;
45338;SDS011;31071;51.478;5.710;2022-07-29T13:55:02;6.75;;;4.10;;
45338;SDS011;31071;51.478;5.710;2022-07-29T13:57:28;4.25;;;3.80;;
45338;SDS011;31071;51.478;5.710;2022-07-29T13:59:54;4.18;;;3.40;;
45338;SDS011;31071;51.478;5.710;2022-07-29T14:02:20;4.80;;;4.00;;
45338;SDS011;31071;51.478;5.710;2022-07-29T14:04:46;5.60;;;3.67;;
45338;SDS011;31071;51.478;5.710;2022-07-29T14:07:12;9.48;;;3.85;;
45338;SDS011;31071;51.478;5.710;2022-07-29T14:09:37;4.32;;;3.05;;
45338;SDS011;31071;51.478;5.710;2022-07-29T14:12:03;7.03;;;3.78;;
45338;SDS011;31071;51.478;5.710;2022-07-29T14:14:29;3.40;;;2.75;;
45338;SDS011;31071;51.478;5.710;2022-07-29T14:16:56;5.05;;;3.42;;
45338;SDS011;31071;51.478;5.710;2022-07-29T14:19:22;6.40;;;3.30;;
45338;SDS011;31071;51.478;5.710;2022-07-29T14:21:47;4.15;;;3.75;;
45338;SDS011;31071;51.478;5.710;2022-07-29T14:24:13;4.70;;;3.40;;
45338;SDS011;31071;51.478;5.710;2022-07-29T14:26:38;8.48;;;3.33;;
45338;SDS011;31071;51.478;5.710;2022-07-29T14:29:04;4.22;;;3.70;;
45338;SDS011;31071;51.478;5.710;2022-07-29T14:31:33;5.55;;;3.97;;
45338;SDS011;31071;51.478;5.710;2022-07-29T14:33:58;9.30;;;3.83;;
45338;SDS011;31071;51.478;5.710;2022-07-29T14:36:24;3.20;;;2.90;;
45338;SDS011;31071;51.478;5.710;2022-07-29T14:38:49;4.75;;;3.60;;
45338;SDS011;31071;51.478;5.710;2022-07-29T14:41:15;6.15;;;2.97;;
45338;SDS011;31071;51.478;5.710;2022-07-29T14:43:40;5.50;;;3.50;;
45338;SDS011;31071;51.478;5.710;2022-07-29T14:46:06;6.07;;;2.72;;
45338;SDS011;31071;51.478;5.710;2022-07-29T14:48:32;9.75;;;3.20;;
45338;SDS011;31071;51.478;5.710;2022-07-29T14:50:58;6.63;;;3.30;;
45338;SDS011;31071;51.478;5.710;2022-07-29T14:53:23;8.85;;;3.67;;
45338;SDS011;31071;51.478;5.710;2022-07-29T14:55:49;4.55;;;2.83;;
45338;SDS011;31071;51.478;5.710;2022-07-29T14:58:15;4.43;;;2.90;;
45338;SDS011;31071;51.478;5.710;2022-07-29T15:00:40;4.97;;;2.75;;
45338;SDS011;31071;51.478;5.710;2022-07-29T15:03:06;4.65;;;2.90;;
45338;SDS011;31071;51.478;5.710;2022-07-29T15:05:34;4.20;;;2.90;;
45338;SDS011;31071;51.478;5.710;2022-07-29T15:08:00;4.85;;;3.28;;
45338;SDS011;31071;51.478;5.710;2022-07-29T15:10:25;4.65;;;2.67;;
45338;SDS011;31071;51.478;5.710;2022-07-29T15:12:52;5.93;;;3.40;;
45338;SDS011;31071;51.478;5.710;2022-07-29T15:15:17;3.00;;;2.60;;
45338;SDS011;31071;51.478;5.710;2022-07-29T15:17:48;6.53;;;2.45;;
45338;SDS011;31071;51.478;5.710;2022-07-29T15:20:14;4.35;;;2.80;;
45338;SDS011;31071;51.478;5.710;2022-07-29T15:22:39;3.33;;;2.40;;
45338;SDS011;31071;51.478;5.710;2022-07-29T15:25:07;4.13;;;2.58;;
45338;SDS011;31071;51.478;5.710;2022-07-29T15:27:32;2.83;;;2.53;;
45338;SDS011;31071;51.478;5.710;2022-07-29T15:29:58;2.83;;;2.63;;
45338;SDS011;31071;51.478;5.710;2022-07-29T15:32:24;3.05;;;2.55;;
45338;SDS011;31071;51.478;5.710;2022-07-29T15:34:49;3.03;;;2.53;;
45338;SDS011;31071;51.478;5.710;2022-07-29T15:37:15;7.45;;;2.88;;
45338;SDS011;31071;51.478;5.710;2022-07-29T15:39:40;6.03;;;2.95;;
45338;SDS011;31071;51.478;5.710;2022-07-29T15:42:06;5.55;;;3.05;;
45338;SDS011;31071;51.478;5.710;2022-07-29T15:44:31;3.95;;;2.63;;